createdAt,value
2022-09-23T00:00:00.640Z,993.6516
2022-09-23T00:01:00.852Z,993.723
2022-09-23T00:02:01.031Z,993.7023
2022-09-23T00:03:01.162Z,993.6883
2022-09-23T00:04:01.264Z,993.7235
2022-09-23T00:05:00.391Z,993.6669
2022-09-23T00:06:00.541Z,993.8229
2022-09-23T00:07:00.682Z,993.6959
2022-09-23T00:08:00.825Z,993.7663
2022-09-23T00:09:01.020Z,993.8091
2022-09-23T00:10:01.142Z,993.7037
2022-09-23T00:11:00.281Z,993.471
2022-09-23T00:12:00.430Z,993.5488
2022-09-23T00:13:00.578Z,993.6336
2022-09-23T00:14:00.747Z,993.6902
2022-09-23T00:15:00.876Z,993.655
2022-09-23T00:16:01.036Z,993.7116
2022-09-23T00:17:01.273Z,993.6336
2022-09-23T00:18:00.321Z,993.6336
2022-09-23T00:19:00.484Z,993.5136
2022-09-23T00:20:00.617Z,993.6695
2022-09-23T00:21:00.749Z,993.6902
2022-09-23T00:22:00.914Z,993.5905
2022-09-23T00:23:01.043Z,993.4979
2022-09-23T00:24:01.273Z,993.674
2022-09-23T00:25:00.371Z,993.6027
2022-09-23T00:26:00.528Z,993.6098
2022-09-23T00:27:00.672Z,993.6174
2022-09-23T00:28:00.817Z,993.5827
2022-09-23T00:29:00.982Z,993.5905
2022-09-23T00:30:01.140Z,993.5698
2022-09-23T00:31:00.295Z,993.7111
2022-09-23T00:32:00.411Z,993.4696
2022-09-23T00:33:00.559Z,993.5608
2022-09-23T00:34:00.731Z,993.4054
2022-09-23T00:35:00.859Z,993.5048
2022-09-23T00:36:01.000Z,993.8091
2022-09-23T00:37:01.135Z,993.6262
2022-09-23T00:38:00.287Z,993.471
2022-09-23T00:39:00.427Z,993.5133
2022-09-23T00:40:00.606Z,993.611
2022-09-23T00:41:00.720Z,993.5042
2022-09-23T00:42:00.865Z,993.4192
2022-09-23T00:43:01.020Z,993.4896
2022-09-23T00:44:01.164Z,993.5249
2022-09-23T00:45:00.320Z,993.6022
2022-09-23T00:46:00.525Z,993.4533
2022-09-23T00:47:00.602Z,993.7501
2022-09-23T00:48:00.751Z,993.552
2022-09-23T00:49:00.901Z,993.4671
2022-09-23T00:50:01.052Z,993.5237
2022-09-23T00:51:01.210Z,993.4671
2022-09-23T00:52:00.355Z,993.5941
2022-09-23T00:53:00.512Z,993.5375
2022-09-23T00:54:00.762Z,993.4176
2022-09-23T00:55:00.813Z,993.4878
2022-09-23T00:56:00.960Z,993.601
2022-09-23T00:57:01.135Z,993.5232
2022-09-23T00:58:01.250Z,993.5087
2022-09-23T00:59:00.412Z,993.4804
2022-09-23T01:00:00.543Z,993.4521
2022-09-23T01:01:00.770Z,993.4521
2022-09-23T01:02:00.920Z,993.4804
2022-09-23T01:03:00.967Z,993.3954
2022-09-23T01:04:01.122Z,993.4728
2022-09-23T01:05:00.260Z,993.3312
2022-09-23T01:06:00.403Z,993.296
2022-09-23T01:07:00.547Z,993.3595
2022-09-23T01:08:00.700Z,993.2563
2022-09-23T01:09:00.872Z,993.5149
2022-09-23T01:10:01.013Z,993.3664
2022-09-23T01:11:01.131Z,993.3312
2022-09-23T01:12:00.259Z,993.4444
2022-09-23T01:13:00.401Z,993.3312
2022-09-23T01:14:00.559Z,993.4444
2022-09-23T01:15:00.739Z,993.2746
2022-09-23T01:16:00.856Z,993.228
2022-09-23T01:17:01.069Z,993.3312
2022-09-23T01:18:01.158Z,993.296
2022-09-23T01:19:00.302Z,993.3878
2022-09-23T01:20:00.473Z,993.3388
2022-09-23T01:21:00.597Z,993.4949
2022-09-23T01:22:00.744Z,993.4816
2022-09-23T01:23:00.893Z,993.567
2022-09-23T01:24:01.042Z,993.3987
2022-09-23T01:25:01.207Z,993.2716
2022-09-23T01:26:00.336Z,993.4068
2022-09-23T01:27:00.511Z,993.1139
2022-09-23T01:28:00.633Z,993.2064
2022-09-23T01:29:00.784Z,993.1505
2022-09-23T01:30:00.965Z,993.2354
2022-09-23T01:31:01.172Z,993.1788
2022-09-23T01:32:01.236Z,993.3107
2022-09-23T01:33:00.381Z,993.2008
2022-09-23T01:34:00.541Z,993.1228
2022-09-23T01:35:00.717Z,993.2428
2022-09-23T01:36:00.845Z,993.1446
2022-09-23T01:37:00.991Z,993.1241
2022-09-23T01:38:04.072Z,993.1241
2022-09-23T01:39:00.365Z,993.1241
2022-09-23T01:40:00.467Z,993.1091
2022-09-23T01:41:00.587Z,993.0814
2022-09-23T01:42:00.738Z,993.1442
2022-09-23T01:43:00.891Z,993.1091
2022-09-23T01:44:01.040Z,993.0017
2022-09-23T01:45:01.214Z,992.9811
2022-09-23T01:46:00.332Z,993.0676
2022-09-23T01:47:00.482Z,992.9182
2022-09-23T01:48:00.701Z,993.0972
2022-09-23T01:49:00.890Z,992.8909
2022-09-23T01:50:00.949Z,992.9687
2022-09-23T01:51:01.072Z,993.0552
2022-09-23T01:52:01.225Z,993.0691
2022-09-23T01:53:00.366Z,992.9182
2022-09-23T01:54:00.514Z,992.8444
2022-09-23T01:55:00.694Z,993.1117
2022-09-23T01:56:00.811Z,992.8807
2022-09-23T01:57:00.974Z,992.8927
2022-09-23T01:58:01.115Z,993.14
2022-09-23T01:59:01.256Z,992.9687
2022-09-23T02:00:00.413Z,992.8807
2022-09-23T02:01:00.642Z,992.9975
2022-09-23T02:02:00.787Z,992.8525
2022-09-23T02:03:00.852Z,993.0834
2022-09-23T02:04:01.017Z,992.8839
2022-09-23T02:05:01.157Z,992.8242
2022-09-23T02:06:00.305Z,992.941
2022-09-23T02:07:00.446Z,992.7814
2022-09-23T02:08:00.593Z,992.8839
2022-09-23T02:09:00.774Z,992.7608
2022-09-23T02:10:00.909Z,992.8113
2022-09-23T02:11:01.069Z,992.8042
2022-09-23T02:12:01.200Z,992.8678
2022-09-23T02:13:00.359Z,992.9776
2022-09-23T02:14:00.509Z,992.7753
2022-09-23T02:15:00.648Z,992.8028
2022-09-23T02:16:00.786Z,992.7112
2022-09-23T02:17:01.014Z,992.7685
2022-09-23T02:18:01.090Z,992.7402
2022-09-23T02:19:01.247Z,992.7112
2022-09-23T02:20:00.380Z,992.6547
2022-09-23T02:21:00.538Z,992.7899
2022-09-23T02:22:00.682Z,992.7202
2022-09-23T02:23:00.828Z,992.8195
2022-09-23T02:24:00.993Z,992.7271
2022-09-23T02:25:01.114Z,992.7973
2022-09-23T02:26:00.263Z,992.8091
2022-09-23T02:27:00.402Z,992.7946
2022-09-23T02:28:00.555Z,992.8222
2022-09-23T02:29:00.734Z,992.7724
2022-09-23T02:30:00.849Z,992.6945
2022-09-23T02:31:01.006Z,992.8963
2022-09-23T02:32:01.195Z,992.6801
2022-09-23T02:33:00.286Z,992.6801
2022-09-23T02:34:00.454Z,992.7932
2022-09-23T02:35:00.618Z,992.8075
2022-09-23T02:36:00.744Z,992.709
2022-09-23T02:37:00.884Z,992.794
2022-09-23T02:38:01.031Z,992.7938
2022-09-23T02:39:01.169Z,992.5961
2022-09-23T02:40:00.332Z,992.7021
2022-09-23T02:41:00.481Z,992.6527
2022-09-23T02:42:00.609Z,992.6028
2022-09-23T02:43:00.760Z,992.5959
2022-09-23T02:44:00.902Z,992.7938
2022-09-23T02:45:01.059Z,992.5959
2022-09-23T02:46:01.306Z,992.6525
2022-09-23T02:47:00.347Z,992.6662
2022-09-23T02:48:00.496Z,992.5953
2022-09-23T02:49:00.628Z,992.7649
2022-09-23T02:50:00.789Z,992.7649
2022-09-23T02:51:00.962Z,992.7082
2022-09-23T02:52:01.092Z,992.6303
2022-09-23T02:53:01.226Z,992.5877
2022-09-23T02:54:00.368Z,992.7498
2022-09-23T02:55:00.528Z,992.665
2022-09-23T02:56:00.683Z,992.4671
2022-09-23T02:57:00.815Z,992.665
2022-09-23T02:58:00.956Z,992.707
2022-09-23T02:59:01.106Z,992.6367
2022-09-23T03:00:00.265Z,992.5022
2022-09-23T03:01:00.497Z,992.4746
2022-09-23T03:02:00.669Z,992.7005
2022-09-23T03:03:00.703Z,992.5737
2022-09-23T03:04:00.870Z,992.5951
2022-09-23T03:05:01.010Z,992.454
2022-09-23T03:06:01.155Z,992.4966
2022-09-23T03:07:00.292Z,992.3981
2022-09-23T03:08:00.445Z,992.5671
2022-09-23T03:09:00.612Z,992.5671
2022-09-23T03:10:00.742Z,992.5874
2022-09-23T03:11:00.883Z,992.4105
2022-09-23T03:12:01.040Z,992.5519
2022-09-23T03:13:01.178Z,992.5022
2022-09-23T03:14:00.349Z,992.5305
2022-09-23T03:15:00.458Z,992.4808
2022-09-23T03:16:00.790Z,992.516
2022-09-23T03:17:00.771Z,992.2546
2022-09-23T03:18:00.915Z,992.36
2022-09-23T03:19:01.076Z,992.3954
2022-09-23T03:20:01.225Z,992.2187
2022-09-23T03:21:00.364Z,992.2966
2022-09-23T03:22:00.498Z,992.5511
2022-09-23T03:23:00.649Z,992.4808
2022-09-23T03:24:00.795Z,992.4808
2022-09-23T03:25:00.974Z,992.4808
2022-09-23T03:26:01.100Z,992.4808
2022-09-23T03:27:01.239Z,992.5511
2022-09-23T03:28:00.375Z,992.2401
2022-09-23T03:29:00.544Z,992.3814
2022-09-23T03:30:00.694Z,992.4808
2022-09-23T03:31:00.832Z,992.4105
2022-09-23T03:32:01.054Z,992.5236
2022-09-23T03:33:01.127Z,992.3613
2022-09-23T03:34:00.273Z,992.369
2022-09-23T03:35:00.450Z,992.4332
2022-09-23T03:36:00.577Z,992.3141
2022-09-23T03:37:00.729Z,992.2861
2022-09-23T03:38:00.871Z,992.3569
2022-09-23T03:39:01.075Z,992.2156
2022-09-23T03:40:01.193Z,992.2308
2022-09-23T03:41:00.315Z,992.2531
2022-09-23T03:42:00.457Z,992.1826
2022-09-23T03:43:00.603Z,992.1683
2022-09-23T03:44:00.755Z,992.3569
2022-09-23T03:45:00.924Z,992.2445
2022-09-23T03:46:01.074Z,992.2721
2022-09-23T03:47:01.199Z,992.0613
2022-09-23T03:48:00.340Z,992.2721
2022-09-23T03:49:00.568Z,992.2439
2022-09-23T03:50:00.641Z,992.0743
2022-09-23T03:51:00.786Z,992.2859
2022-09-23T03:52:00.929Z,992.3561
2022-09-23T03:53:01.073Z,992.088
2022-09-23T03:54:01.248Z,992.1505
2022-09-23T03:55:00.360Z,992.2278
2022-09-23T03:56:00.534Z,992.0017
2022-09-23T03:57:00.667Z,992.2278
2022-09-23T03:58:00.815Z,992.1017
2022-09-23T03:59:00.986Z,992.1379
2022-09-23T04:00:01.103Z,992.2156
2022-09-23T04:01:01.360Z,992.0467
2022-09-23T04:02:00.504Z,992.0544
2022-09-23T04:03:00.542Z,992.1957
2022-09-23T04:04:00.717Z,991.9209
2022-09-23T04:05:00.839Z,992.1255
2022-09-23T04:06:00.994Z,992.182
2022-09-23T04:07:01.136Z,992.1392
2022-09-23T04:08:00.282Z,992.2522
2022-09-23T04:09:00.434Z,992.2094
2022-09-23T04:10:00.610Z,991.9842
2022-09-23T04:11:00.727Z,992.0339
2022-09-23T04:12:00.876Z,992.0339
2022-09-23T04:13:01.025Z,992.0972
2022-09-23T04:14:01.175Z,992.069
2022-09-23T04:15:00.328Z,992.1041
2022-09-23T04:16:00.550Z,991.9628
2022-09-23T04:17:00.607Z,992.1392
2022-09-23T04:18:00.755Z,992.0339
2022-09-23T04:19:00.908Z,992.069
2022-09-23T04:20:01.066Z,991.8858
2022-09-23T04:21:01.527Z,992.0268
2022-09-23T04:22:00.346Z,991.9988
2022-09-23T04:23:00.502Z,991.9988
2022-09-23T04:24:00.746Z,991.9421
2022-09-23T04:25:00.842Z,992.0339
2022-09-23T04:26:00.956Z,992.069
2022-09-23T04:27:01.106Z,991.9988
2022-09-23T04:28:01.255Z,991.9988
2022-09-23T04:29:00.417Z,992.069
2022-09-23T04:30:00.549Z,991.8008
2022-09-23T04:31:00.695Z,991.8291
2022-09-23T04:32:00.945Z,991.8712
2022-09-23T04:33:01.006Z,991.843
2022-09-23T04:34:01.158Z,991.956
2022-09-23T04:35:00.294Z,991.8079
2022-09-23T04:36:00.447Z,991.8507
2022-09-23T04:37:00.607Z,991.956
2022-09-23T04:38:00.743Z,991.8781
2022-09-23T04:39:00.929Z,991.8995
2022-09-23T04:40:01.057Z,991.8858
2022-09-23T04:41:01.205Z,991.801
2022-09-23T04:42:00.344Z,992.0268
2022-09-23T04:43:00.512Z,991.8856
2022-09-23T04:44:00.665Z,992.069
2022-09-23T04:45:00.817Z,991.9138
2022-09-23T04:46:00.983Z,991.8224
2022-09-23T04:47:01.185Z,991.7871
2022-09-23T04:48:01.247Z,991.752
2022-09-23T04:49:00.493Z,991.9994
2022-09-23T04:50:00.561Z,991.711
2022-09-23T04:51:00.721Z,991.7675
2022-09-23T04:52:00.846Z,991.7819
2022-09-23T04:53:00.995Z,991.8527
2022-09-23T04:54:01.136Z,991.9652
2022-09-23T04:55:00.293Z,991.8101
2022-09-23T04:56:00.462Z,991.8598
2022-09-23T04:57:00.589Z,991.8527
2022-09-23T04:58:00.731Z,991.9026
2022-09-23T04:59:00.892Z,991.7825
2022-09-23T05:00:01.034Z,991.8809
2022-09-23T05:01:05.096Z,991.952
2022-09-23T05:02:00.400Z,991.9026
2022-09-23T05:03:00.455Z,991.952
2022-09-23T05:04:00.613Z,991.8673
2022-09-23T05:05:00.743Z,992.0504
2022-09-23T05:06:00.901Z,992.0224
2022-09-23T05:07:03.362Z,991.8743
2022-09-23T05:08:01.187Z,991.9026
2022-09-23T05:09:00.414Z,991.9802
2022-09-23T05:10:00.480Z,991.9026
2022-09-23T05:11:00.651Z,991.8955
2022-09-23T05:12:00.810Z,991.9101
2022-09-23T05:13:00.944Z,992.0932
2022-09-23T05:14:01.123Z,991.952
2022-09-23T05:16:00.419Z,991.8821
2022-09-23T05:17:00.516Z,991.9101
2022-09-23T05:18:00.659Z,991.9101
2022-09-23T05:19:00.919Z,991.9529
2022-09-23T05:20:00.951Z,991.875
2022-09-23T05:21:01.109Z,991.8538
2022-09-23T05:22:01.239Z,991.8821
2022-09-23T05:23:00.395Z,992.0367
2022-09-23T05:24:00.792Z,992.0224
2022-09-23T05:25:00.692Z,991.8743
2022-09-23T05:26:00.904Z,991.9026
2022-09-23T05:27:00.988Z,991.9657
2022-09-23T05:28:01.124Z,991.775
2022-09-23T05:29:00.486Z,991.7468
2022-09-23T05:30:00.419Z,991.768
2022-09-23T05:31:00.620Z,991.9513
2022-09-23T05:32:00.772Z,991.8523
2022-09-23T05:33:00.872Z,991.824
2022-09-23T05:34:01.105Z,992.0003
2022-09-23T05:35:01.173Z,991.9513
2022-09-23T05:36:00.327Z,991.7185
2022-09-23T05:37:00.466Z,991.8598
2022-09-23T05:38:00.625Z,991.9796
2022-09-23T05:39:00.789Z,991.824
2022-09-23T05:40:00.931Z,991.8523
2022-09-23T05:41:01.085Z,991.7461
2022-09-23T05:42:01.221Z,991.9714
2022-09-23T05:43:00.365Z,991.8436
2022-09-23T05:44:00.548Z,991.7734
2022-09-23T05:45:00.686Z,992.0202
2022-09-23T05:46:02.257Z,991.8507
2022-09-23T05:47:01.066Z,991.7659
2022-09-23T05:48:01.131Z,991.914
2022-09-23T05:49:03.072Z,991.801
2022-09-23T05:50:00.792Z,991.7231
2022-09-23T05:51:00.575Z,991.7582
2022-09-23T05:52:00.705Z,991.7719
2022-09-23T05:53:00.849Z,991.7787
2022-09-23T05:54:01.004Z,991.9048
2022-09-23T05:55:01.179Z,991.9048
2022-09-23T05:56:00.331Z,991.933
2022-09-23T05:57:04.202Z,991.9048
2022-09-23T05:58:00.589Z,991.9048
2022-09-23T05:59:00.823Z,991.975
2022-09-23T06:00:00.899Z,991.7977
2022-09-23T06:01:01.040Z,991.706
2022-09-23T06:02:01.249Z,991.748
2022-09-23T06:03:00.401Z,991.8604
2022-09-23T06:04:00.604Z,991.6908
2022-09-23T06:05:00.634Z,991.7539
2022-09-23T06:06:00.763Z,991.8807
2022-09-23T06:07:03.469Z,991.8168
2022-09-23T06:08:01.057Z,991.9436
2022-09-23T06:09:01.219Z,991.7174
2022-09-23T06:10:00.380Z,991.7594
2022-09-23T06:11:00.506Z,991.8579
2022-09-23T06:12:00.647Z,991.6951
2022-09-23T06:13:00.794Z,991.8007
2022-09-23T06:14:00.995Z,991.8212
2022-09-23T06:15:01.093Z,991.7081
2022-09-23T06:16:01.292Z,991.6303
2022-09-23T06:17:00.371Z,991.8908
2022-09-23T06:18:00.507Z,991.8753
2022-09-23T06:19:04.456Z,991.7056
2022-09-23T06:20:00.833Z,991.9105
2022-09-23T06:21:00.959Z,991.8599
2022-09-23T06:22:01.111Z,991.7889
2022-09-23T06:23:01.255Z,991.8026
2022-09-23T06:24:00.392Z,991.9288
2022-09-23T06:25:00.579Z,991.9359
2022-09-23T06:26:00.681Z,992.0414
2022-09-23T06:27:00.827Z,991.8079
2022-09-23T06:28:00.979Z,991.8003
2022-09-23T06:29:01.125Z,992.0191
2022-09-23T06:30:00.288Z,991.736
2022-09-23T06:31:00.477Z,991.8415
2022-09-23T06:32:00.662Z,991.9052
2022-09-23T06:33:00.716Z,991.926
2022-09-23T06:34:08.306Z,991.8766
2022-09-23T06:35:01.018Z,991.8766
2022-09-23T06:36:01.156Z,992.0321
2022-09-23T06:37:05.902Z,991.7912
2022-09-23T06:38:00.453Z,991.8479
2022-09-23T06:39:00.614Z,991.7912
2022-09-23T06:40:00.746Z,991.9114
2022-09-23T06:41:00.881Z,991.883
2022-09-23T06:42:01.039Z,992.0383
2022-09-23T06:43:01.178Z,991.8461
2022-09-23T06:44:00.344Z,992.022
2022-09-23T06:45:00.496Z,991.9859
2022-09-23T06:46:00.620Z,992.0917
2022-09-23T06:47:00.837Z,991.9355
2022-09-23T06:48:00.915Z,991.9425
2022-09-23T06:49:01.076Z,992.0052
2022-09-23T06:50:01.243Z,991.8834
2022-09-23T06:51:00.362Z,991.96
2022-09-23T06:52:00.511Z,991.8664
2022-09-23T06:53:00.656Z,991.7377
2022-09-23T06:54:00.804Z,991.8641
2022-09-23T06:55:00.960Z,991.7921
2022-09-23T06:56:01.102Z,991.9115
2022-09-23T06:57:01.250Z,991.7899
2022-09-23T06:58:00.402Z,991.9169
2022-09-23T06:59:00.555Z,991.9858
2022-09-23T07:00:00.680Z,991.8153
2022-09-23T07:01:00.827Z,991.8785
2022-09-23T07:02:01.166Z,992.0266
2022-09-23T07:03:01.190Z,991.8202
2022-09-23T07:04:00.307Z,991.7833
2022-09-23T07:05:00.429Z,991.7112
2022-09-23T07:06:00.586Z,991.7522
2022-09-23T07:07:00.734Z,991.8358
2022-09-23T07:08:00.899Z,991.9266
2022-09-23T07:09:01.176Z,991.826
2022-09-23T07:10:01.162Z,991.8744
2022-09-23T07:11:00.309Z,991.7521
2022-09-23T07:12:00.459Z,991.7933
2022-09-23T07:13:00.623Z,991.6929
2022-09-23T07:14:00.744Z,991.8626
2022-09-23T07:15:00.892Z,991.9111
2022-09-23T07:16:01.117Z,991.8317
2022-09-23T07:17:01.176Z,991.9517
2022-09-23T07:18:00.350Z,991.8648
2022-09-23T07:19:00.488Z,991.8208
2022-09-23T07:20:00.620Z,991.7623
2022-09-23T07:21:00.774Z,991.7471
2022-09-23T07:22:00.930Z,991.8094
2022-09-23T07:23:01.069Z,991.8436
2022-09-23T07:24:01.221Z,991.9847
2022-09-23T07:25:00.351Z,991.8699
2022-09-23T07:26:00.503Z,991.9469
2022-09-23T07:27:00.682Z,991.7957
2022-09-23T07:28:00.799Z,991.9587
2022-09-23T07:29:00.955Z,991.7718
2022-09-23T07:30:01.115Z,991.8348
2022-09-23T07:31:01.349Z,991.9398
2022-09-23T07:32:11.814Z,992.0177
2022-09-23T07:33:00.636Z,991.8595
2022-09-23T07:34:00.694Z,991.9295
2022-09-23T07:35:00.821Z,991.9574
2022-09-23T07:36:00.972Z,991.8347
2022-09-23T07:37:01.109Z,991.9195
2022-09-23T07:38:00.254Z,991.7899
2022-09-23T07:39:00.433Z,991.7676
2022-09-23T07:40:00.572Z,991.9668
2022-09-23T07:41:00.689Z,991.6727
2022-09-23T07:42:00.836Z,991.8498
2022-09-23T07:43:00.982Z,991.9982
2022-09-23T07:44:01.142Z,991.9047
2022-09-23T07:45:00.283Z,991.7958
2022-09-23T07:46:00.510Z,991.9094
2022-09-23T07:47:00.569Z,991.8726
2022-09-23T07:48:00.715Z,991.7207
2022-09-23T07:49:00.891Z,991.8196
2022-09-23T07:50:01.012Z,991.8187
2022-09-23T07:51:01.165Z,991.9317
2022-09-23T07:52:00.311Z,991.8381
2022-09-23T07:53:00.467Z,991.873
2022-09-23T07:54:00.609Z,991.879
2022-09-23T07:55:00.777Z,991.7784
2022-09-23T07:56:00.892Z,992.0205
2022-09-23T07:57:01.027Z,991.8765
2022-09-23T07:58:01.200Z,991.8752
2022-09-23T07:59:00.807Z,992.053
2022-09-23T08:00:00.488Z,991.9951
2022-09-23T08:01:00.619Z,991.8651
2022-09-23T08:02:00.842Z,991.7854
2022-09-23T08:03:00.995Z,991.9127
2022-09-23T08:04:01.069Z,991.9483
2022-09-23T08:05:01.247Z,991.84
2022-09-23T08:06:00.371Z,991.8317
2022-09-23T08:07:00.517Z,991.981
2022-09-23T08:08:00.655Z,991.8944
2022-09-23T08:09:00.888Z,991.9082
2022-09-23T08:10:00.963Z,991.8214
2022-09-23T08:11:01.106Z,991.8995
2022-09-23T08:12:01.238Z,991.7553
2022-09-23T08:13:00.383Z,991.8901
2022-09-23T08:14:00.536Z,991.7668
2022-09-23T08:15:00.698Z,991.7592
2022-09-23T08:16:00.896Z,991.7157
2022-09-23T08:17:00.969Z,991.8365
2022-09-23T08:18:01.112Z,991.7352
2022-09-23T08:19:00.311Z,991.849
2022-09-23T08:20:00.438Z,991.9125
2022-09-23T08:21:00.557Z,991.9188
2022-09-23T08:22:00.700Z,991.7456
2022-09-23T08:23:00.849Z,991.6868
2022-09-23T08:24:01.015Z,991.9288
2022-09-23T08:25:01.145Z,991.7559
2022-09-23T08:26:00.287Z,991.719
2022-09-23T08:27:00.432Z,991.7253
2022-09-23T08:28:00.598Z,991.6671
2022-09-23T08:29:00.748Z,991.8099
2022-09-23T08:30:00.903Z,991.7584
2022-09-23T08:31:01.125Z,991.6785
2022-09-23T08:32:01.176Z,991.7065
2022-09-23T08:33:00.330Z,991.6987
2022-09-23T08:34:00.541Z,991.6903
2022-09-23T08:35:00.633Z,991.6964
2022-09-23T08:36:00.785Z,991.7311
2022-09-23T08:37:00.911Z,991.8453
2022-09-23T08:38:01.077Z,991.6291
2022-09-23T08:39:01.200Z,991.6929
2022-09-23T08:40:00.369Z,991.8066
2022-09-23T08:41:00.502Z,991.6915
2022-09-23T08:42:00.643Z,991.8562
2022-09-23T08:43:00.797Z,991.7908
2022-09-23T08:44:00.961Z,991.6247
2022-09-23T08:45:01.088Z,991.5371
2022-09-23T08:46:01.365Z,991.6086
2022-09-23T08:47:00.384Z,991.6583
2022-09-23T08:48:00.531Z,991.7298
2022-09-23T08:49:00.696Z,991.607
2022-09-23T08:50:00.836Z,991.4988
2022-09-23T08:51:00.969Z,991.6562
2022-09-23T08:52:01.117Z,991.548
2022-09-23T08:53:00.260Z,991.4964
2022-09-23T08:54:00.427Z,991.4739
2022-09-23T08:55:00.547Z,991.4801
2022-09-23T08:56:00.697Z,991.6299
2022-09-23T08:57:00.833Z,991.6081
2022-09-23T08:58:23.943Z,991.5788
2022-09-23T08:59:01.146Z,991.5272
2022-09-23T09:00:00.277Z,991.5769
2022-09-23T09:01:00.558Z,991.5981
2022-09-23T09:02:00.559Z,991.5179
2022-09-23T09:03:00.715Z,991.4116
2022-09-23T09:04:00.890Z,991.5232
2022-09-23T09:05:01.027Z,991.5362
2022-09-23T09:06:01.156Z,991.4162
2022-09-23T09:07:24.569Z,991.4778
2022-09-23T09:08:00.452Z,991.5276
2022-09-23T09:09:00.697Z,991.4222
2022-09-23T09:10:00.742Z,991.5345
2022-09-23T09:11:00.903Z,991.4692
2022-09-23T09:12:01.048Z,991.4831
2022-09-23T09:13:01.198Z,991.504
2022-09-23T09:14:00.360Z,991.4884
2022-09-23T09:15:00.496Z,991.4884
2022-09-23T09:16:00.686Z,991.4884
2022-09-23T09:17:01.500Z,991.4735
2022-09-23T09:18:00.936Z,991.5233
2022-09-23T09:19:01.099Z,991.638
2022-09-23T09:20:01.236Z,991.4602
2022-09-23T09:21:00.372Z,991.4085
2022-09-23T09:22:00.536Z,991.5996
2022-09-23T09:23:00.741Z,991.5332
2022-09-23T09:24:00.827Z,991.4128
2022-09-23T09:25:00.961Z,991.4566
2022-09-23T09:26:01.114Z,991.4042
2022-09-23T09:28:00.370Z,991.4659
2022-09-23T09:29:16.806Z,991.454
2022-09-23T09:30:00.647Z,991.3307
2022-09-23T09:31:00.846Z,991.4027
2022-09-23T09:32:00.946Z,991.395
2022-09-23T09:33:01.111Z,991.4786
2022-09-23T09:34:01.238Z,991.3651
2022-09-23T09:35:00.407Z,991.3492
2022-09-23T09:36:00.541Z,991.421
2022-09-23T09:37:06.175Z,991.3343
2022-09-23T09:38:00.846Z,991.2609
2022-09-23T09:39:01.017Z,991.3685
2022-09-23T09:40:01.124Z,991.2529
2022-09-23T09:41:00.275Z,991.2247
2022-09-23T09:42:00.438Z,991.4037
2022-09-23T09:43:00.571Z,991.4468
2022-09-23T09:44:00.977Z,991.3451
2022-09-23T09:45:00.875Z,991.1936
2022-09-23T09:46:01.013Z,991.2145
2022-09-23T09:47:01.290Z,991.07
2022-09-23T09:48:00.305Z,991.2285
2022-09-23T09:49:00.583Z,991.2285
2022-09-23T09:50:00.607Z,991.0401
2022-09-23T09:51:00.750Z,991.1769
2022-09-23T09:52:00.895Z,991.2198
2022-09-23T09:53:00.992Z,991.2051
2022-09-23T09:54:01.154Z,990.9738
2022-09-23T09:55:00.268Z,991.0902
2022-09-23T09:56:04.595Z,991.0473
2022-09-23T09:57:00.592Z,991.0034
2022-09-23T09:58:00.713Z,991.1253
2022-09-23T09:59:00.873Z,991.0386
2022-09-23T10:00:01.017Z,991.0097
2022-09-23T10:01:01.230Z,991.0523
2022-09-23T10:02:00.282Z,991.0882
2022-09-23T10:03:00.428Z,991.0593
2022-09-23T10:04:00.590Z,991.1024
2022-09-23T10:05:00.739Z,991.1024
2022-09-23T10:06:00.907Z,991.0944
2022-09-23T10:07:01.034Z,990.9787
2022-09-23T10:08:01.237Z,991.0146
2022-09-23T10:09:00.381Z,991.1662
2022-09-23T10:10:05.992Z,990.9568
2022-09-23T10:11:00.638Z,990.8909
2022-09-23T10:12:00.786Z,991.0066
2022-09-23T10:13:00.924Z,990.8762
2022-09-23T10:14:01.065Z,990.8909
2022-09-23T10:15:00.212Z,990.9707
2022-09-23T10:16:00.378Z,990.9699
2022-09-23T10:17:00.595Z,990.8894
2022-09-23T10:18:00.739Z,990.9245
2022-09-23T10:19:00.832Z,991.0542
2022-09-23T10:20:01.016Z,990.8227
2022-09-23T10:21:01.094Z,991.0682
2022-09-23T10:22:00.356Z,990.8455
2022-09-23T10:23:00.400Z,990.8455
2022-09-23T10:24:00.523Z,990.9532
2022-09-23T10:25:00.671Z,991.0754
2022-09-23T10:26:00.829Z,990.7059
2022-09-23T10:27:00.965Z,991.0016
2022-09-23T10:28:03.627Z,990.8059
2022-09-23T10:29:00.293Z,990.8349
2022-09-23T10:30:00.412Z,990.9496
2022-09-23T10:31:00.597Z,990.9269
2022-09-23T10:32:00.714Z,990.7312
2022-09-23T10:33:00.863Z,990.832
2022-09-23T10:34:01.004Z,990.7811
2022-09-23T10:35:01.142Z,990.846
2022-09-23T10:36:00.317Z,990.817
2022-09-23T10:37:00.468Z,990.9753
2022-09-23T10:38:00.665Z,990.8884
2022-09-23T10:39:00.895Z,990.8015
2022-09-23T10:40:00.908Z,990.9313
2022-09-23T10:41:01.242Z,990.7208
2022-09-23T10:42:00.213Z,990.9013
2022-09-23T10:43:00.356Z,990.8646
2022-09-23T10:44:00.656Z,990.705
2022-09-23T10:45:00.680Z,990.5742
2022-09-23T10:46:00.864Z,990.6241
2022-09-23T10:47:00.976Z,990.8038
2022-09-23T10:48:01.089Z,990.8615
2022-09-23T10:49:00.234Z,990.675
2022-09-23T10:50:00.379Z,990.653
2022-09-23T10:51:00.528Z,990.9117
2022-09-23T10:52:00.699Z,990.6359
2022-09-23T10:53:00.823Z,990.8222
2022-09-23T10:54:00.976Z,990.6765
2022-09-23T10:55:01.122Z,990.6193
2022-09-23T10:56:00.276Z,990.7932
2022-09-23T10:57:00.444Z,990.7063
2022-09-23T10:58:00.555Z,990.6193
2022-09-23T10:59:00.715Z,990.6835
2022-09-23T11:00:00.863Z,990.5737
2022-09-23T11:01:01.052Z,990.5866
2022-09-23T11:02:01.165Z,990.5358
2022-09-23T11:03:00.291Z,990.4779
2022-09-23T11:04:00.493Z,990.5718
2022-09-23T11:05:00.617Z,990.5358
2022-09-23T11:06:00.719Z,990.4366
2022-09-23T11:07:00.891Z,990.4436
2022-09-23T11:08:01.006Z,990.5146
2022-09-23T11:09:01.161Z,990.5667
2022-09-23T11:10:00.300Z,990.6097
2022-09-23T11:11:00.445Z,990.6285
2022-09-23T11:12:00.623Z,990.5686
2022-09-23T11:13:00.749Z,990.5748
2022-09-23T11:14:00.919Z,990.5748
2022-09-23T11:15:01.041Z,990.4816
2022-09-23T11:16:01.203Z,990.4256
2022-09-23T11:17:00.392Z,990.4476
2022-09-23T11:18:00.475Z,990.4977
2022-09-23T11:19:00.645Z,990.2895
2022-09-23T11:20:00.773Z,990.4055
2022-09-23T11:21:00.918Z,990.3974
2022-09-23T11:22:01.068Z,990.4036
2022-09-23T11:23:01.213Z,990.5748
2022-09-23T11:24:00.421Z,990.2655
2022-09-23T11:25:00.495Z,990.4036
2022-09-23T11:26:00.655Z,990.3606
2022-09-23T11:27:00.806Z,990.3676
2022-09-23T11:28:00.959Z,990.3227
2022-09-23T11:29:01.115Z,990.4232
2022-09-23T11:30:00.241Z,990.3711
2022-09-23T11:31:00.449Z,990.2611
2022-09-23T11:32:00.528Z,990.1512
2022-09-23T11:33:00.702Z,990.195
2022-09-23T11:34:00.894Z,990.2902
2022-09-23T11:35:00.997Z,990.2541
2022-09-23T11:36:01.130Z,990.3192
2022-09-23T11:37:00.249Z,990.4071
2022-09-23T11:38:00.406Z,990.378
2022-09-23T11:39:00.551Z,990.1679
2022-09-23T11:40:00.709Z,990.248
2022-09-23T11:41:00.942Z,990.1319
2022-09-23T11:42:01.003Z,990.1392
2022-09-23T11:43:01.142Z,990.1319
2022-09-23T11:44:00.386Z,990.2039
2022-09-23T11:45:00.462Z,990.1682
2022-09-23T11:46:00.628Z,990.0298
2022-09-23T11:47:00.721Z,990.1319
2022-09-23T11:48:00.862Z,990.1328